sensor_id;sensor_type;location;lat;lon;timestamp;temperature;humidity
51500;DHT22;39101;53.478;6.158;2023-04-25T00:00:28;6.60;99.90
51500;DHT22;39101;53.478;6.158;2023-04-25T00:02:54;6.70;99.90
51500;DHT22;39101;53.478;6.158;2023-04-25T00:05:22;6.70;99.90
51500;DHT22;39101;53.478;6.158;2023-04-25T00:07:49;6.60;99.90
51500;DHT22;39101;53.478;6.158;2023-04-25T00:10:15;6.60;99.90
51500;DHT22;39101;53.478;6.158;2023-04-25T00:12:41;6.50;99.90
51500;DHT22;39101;53.478;6.158;2023-04-25T00:15:07;6.50;99.90
51500;DHT22;39101;53.478;6.158;2023-04-25T00:17:33;6.50;99.90
51500;DHT22;39101;53.478;6.158;2023-04-25T00:20:00;6.40;99.90
51500;DHT22;39101;53.478;6.158;2023-04-25T00:22:26;6.40;99.90
51500;DHT22;39101;53.478;6.158;2023-04-25T00:24:52;6.30;99.90
51500;DHT22;39101;53.478;6.158;2023-04-25T00:27:18;6.30;99.90
51500;DHT22;39101;53.478;6.158;2023-04-25T00:29:44;6.30;99.90
51500;DHT22;39101;53.478;6.158;2023-04-25T00:32:10;6.40;99.90
51500;DHT22;39101;53.478;6.158;2023-04-25T00:34:35;6.40;99.90
51500;DHT22;39101;53.478;6.158;2023-04-25T00:37:01;6.40;99.90
51500;DHT22;39101;53.478;6.158;2023-04-25T00:39:27;6.30;99.90
51500;DHT22;39101;53.478;6.158;2023-04-25T00:41:54;6.30;99.90
51500;DHT22;39101;53.478;6.158;2023-04-25T00:44:20;6.30;99.90
51500;DHT22;39101;53.478;6.158;2023-04-25T00:46:47;6.30;99.90
51500;DHT22;39101;53.478;6.158;2023-04-25T00:49:13;6.40;99.90
51500;DHT22;39101;53.478;6.158;2023-04-25T00:51:41;6.70;99.90
51500;DHT22;39101;53.478;6.158;2023-04-25T00:54:07;6.40;99.90
51500;DHT22;39101;53.478;6.158;2023-04-25T00:56:33;6.40;99.90
51500;DHT22;39101;53.478;6.158;2023-04-25T00:58:58;6.70;99.90
51500;DHT22;39101;53.478;6.158;2023-04-25T01:01:24;6.40;99.90
51500;DHT22;39101;53.478;6.158;2023-04-25T01:03:50;6.60;99.90
51500;DHT22;39101;53.478;6.158;2023-04-25T01:06:16;6.30;99.90
51500;DHT22;39101;53.478;6.158;2023-04-25T01:08:42;6.30;99.90
51500;DHT22;39101;53.478;6.158;2023-04-25T01:11:08;6.30;99.90
51500;DHT22;39101;53.478;6.158;2023-04-25T01:13:34;6.30;99.90
51500;DHT22;39101;53.478;6.158;2023-04-25T01:16:00;6.20;99.90
51500;DHT22;39101;53.478;6.158;2023-04-25T01:18:26;6.20;99.90
51500;DHT22;39101;53.478;6.158;2023-04-25T01:20:53;6.20;99.90
51500;DHT22;39101;53.478;6.158;2023-04-25T01:23:22;6.10;99.90
51500;DHT22;39101;53.478;6.158;2023-04-25T01:25:49;6.30;99.90
51500;DHT22;39101;53.478;6.158;2023-04-25T01:28:15;6.10;99.90
51500;DHT22;39101;53.478;6.158;2023-04-25T01:30:41;6.10;99.90
51500;DHT22;39101;53.478;6.158;2023-04-25T01:33:08;6.10;99.90
51500;DHT22;39101;53.478;6.158;2023-04-25T01:35:34;6.20;99.90
51500;DHT22;39101;53.478;6.158;2023-04-25T01:38:00;6.10;99.90
51500;DHT22;39101;53.478;6.158;2023-04-25T01:40:27;6.10;99.90
51500;DHT22;39101;53.478;6.158;2023-04-25T01:42:54;6.10;99.90
51500;DHT22;39101;53.478;6.158;2023-04-25T01:45:20;6.10;99.90
51500;DHT22;39101;53.478;6.158;2023-04-25T01:47:46;6.10;99.90
51500;DHT22;39101;53.478;6.158;2023-04-25T01:50:16;6.00;99.90
51500;DHT22;39101;53.478;6.158;2023-04-25T01:52:42;6.10;99.90
51500;DHT22;39101;53.478;6.158;2023-04-25T01:55:08;6.00;99.90
51500;DHT22;39101;53.478;6.158;2023-04-25T01:57:34;6.00;99.90
51500;DHT22;39101;53.478;6.158;2023-04-25T02:00:03;6.00;99.90
51500;DHT22;39101;53.478;6.158;2023-04-25T02:02:29;6.00;99.90
51500;DHT22;39101;53.478;6.158;2023-04-25T02:04:55;6.00;99.90
51500;DHT22;39101;53.478;6.158;2023-04-25T02:07:21;6.00;99.90
51500;DHT22;39101;53.478;6.158;2023-04-25T02:09:47;6.00;99.90
51500;DHT22;39101;53.478;6.158;2023-04-25T02:12:13;6.10;99.90
51500;DHT22;39101;53.478;6.158;2023-04-25T02:14:38;6.10;99.90
51500;DHT22;39101;53.478;6.158;2023-04-25T02:17:04;6.10;99.90
51500;DHT22;39101;53.478;6.158;2023-04-25T02:19:31;6.10;99.90
51500;DHT22;39101;53.478;6.158;2023-04-25T02:21:56;6.00;99.90
51500;DHT22;39101;53.478;6.158;2023-04-25T02:24:22;6.10;99.90
51500;DHT22;39101;53.478;6.158;2023-04-25T02:26:48;6.00;99.90
51500;DHT22;39101;53.478;6.158;2023-04-25T02:29:15;5.90;99.90
51500;DHT22;39101;53.478;6.158;2023-04-25T02:31:41;5.90;99.90
51500;DHT22;39101;53.478;6.158;2023-04-25T02:34:06;5.90;99.90
51500;DHT22;39101;53.478;6.158;2023-04-25T02:36:32;5.90;99.90
51500;DHT22;39101;53.478;6.158;2023-04-25T02:39:00;5.90;99.90
51500;DHT22;39101;53.478;6.158;2023-04-25T02:41:26;5.90;99.90
51500;DHT22;39101;53.478;6.158;2023-04-25T02:43:52;6.00;99.90
51500;DHT22;39101;53.478;6.158;2023-04-25T02:46:17;6.10;99.90
51500;DHT22;39101;53.478;6.158;2023-04-25T02:48:43;5.90;99.90
51500;DHT22;39101;53.478;6.158;2023-04-25T02:51:09;5.90;99.90
51500;DHT22;39101;53.478;6.158;2023-04-25T02:53:35;5.80;99.90
51500;DHT22;39101;53.478;6.158;2023-04-25T02:56:01;5.80;99.90
51500;DHT22;39101;53.478;6.158;2023-04-25T02:58:27;5.80;99.90
51500;DHT22;39101;53.478;6.158;2023-04-25T03:00:53;5.80;99.90
51500;DHT22;39101;53.478;6.158;2023-04-25T03:03:18;6.00;99.90
51500;DHT22;39101;53.478;6.158;2023-04-25T03:05:50;5.90;99.90
51500;DHT22;39101;53.478;6.158;2023-04-25T03:08:17;5.90;99.90
51500;DHT22;39101;53.478;6.158;2023-04-25T03:10:43;6.00;99.90
51500;DHT22;39101;53.478;6.158;2023-04-25T03:13:09;6.00;99.90
51500;DHT22;39101;53.478;6.158;2023-04-25T03:15:35;5.90;99.90
51500;DHT22;39101;53.478;6.158;2023-04-25T03:18:01;5.90;99.90
51500;DHT22;39101;53.478;6.158;2023-04-25T03:20:27;5.80;99.90
51500;DHT22;39101;53.478;6.158;2023-04-25T03:22:53;5.80;99.90
51500;DHT22;39101;53.478;6.158;2023-04-25T03:25:18;5.80;99.90
51500;DHT22;39101;53.478;6.158;2023-04-25T03:27:44;5.80;99.90
51500;DHT22;39101;53.478;6.158;2023-04-25T03:30:10;6.00;99.90
51500;DHT22;39101;53.478;6.158;2023-04-25T03:32:36;5.70;99.90
51500;DHT22;39101;53.478;6.158;2023-04-25T03:35:02;5.70;99.90
51500;DHT22;39101;53.478;6.158;2023-04-25T03:37:28;5.60;99.90
51500;DHT22;39101;53.478;6.158;2023-04-25T03:39:54;5.70;99.90
51500;DHT22;39101;53.478;6.158;2023-04-25T03:42:19;5.70;99.90
51500;DHT22;39101;53.478;6.158;2023-04-25T03:44:48;5.60;99.90
51500;DHT22;39101;53.478;6.158;2023-04-25T03:47:14;5.70;99.90
51500;DHT22;39101;53.478;6.158;2023-04-25T03:49:40;6.30;99.90
51500;DHT22;39101;53.478;6.158;2023-04-25T03:52:05;5.60;99.90
51500;DHT22;39101;53.478;6.158;2023-04-25T03:54:31;5.50;99.90
51500;DHT22;39101;53.478;6.158;2023-04-25T03:56:56;5.40;99.90
51500;DHT22;39101;53.478;6.158;2023-04-25T03:59:22;5.50;99.90
51500;DHT22;39101;53.478;6.158;2023-04-25T04:01:48;5.60;99.90
51500;DHT22;39101;53.478;6.158;2023-04-25T04:04:13;5.60;99.90
51500;DHT22;39101;53.478;6.158;2023-04-25T04:06:39;5.60;99.90
51500;DHT22;39101;53.478;6.158;2023-04-25T04:09:05;5.80;99.90
51500;DHT22;39101;53.478;6.158;2023-04-25T04:11:34;6.00;99.90
51500;DHT22;39101;53.478;6.158;2023-04-25T04:14:02;5.70;99.90
51500;DHT22;39101;53.478;6.158;2023-04-25T04:16:27;5.90;99.90
51500;DHT22;39101;53.478;6.158;2023-04-25T04:18:53;5.80;99.90
51500;DHT22;39101;53.478;6.158;2023-04-25T04:21:19;5.60;99.90
51500;DHT22;39101;53.478;6.158;2023-04-25T04:23:45;5.40;99.90
51500;DHT22;39101;53.478;6.158;2023-04-25T04:26:11;5.20;99.90
51500;DHT22;39101;53.478;6.158;2023-04-25T04:28:38;5.20;99.90
51500;DHT22;39101;53.478;6.158;2023-04-25T04:31:03;5.20;99.90
51500;DHT22;39101;53.478;6.158;2023-04-25T04:33:29;4.80;99.90
51500;DHT22;39101;53.478;6.158;2023-04-25T04:35:56;4.70;99.90
51500;DHT22;39101;53.478;6.158;2023-04-25T04:38:22;4.80;99.90
51500;DHT22;39101;53.478;6.158;2023-04-25T04:40:47;4.70;99.90
51500;DHT22;39101;53.478;6.158;2023-04-25T04:43:13;4.70;99.90
51500;DHT22;39101;53.478;6.158;2023-04-25T04:45:40;4.90;99.90
51500;DHT22;39101;53.478;6.158;2023-04-25T04:48:06;5.30;99.90
51500;DHT22;39101;53.478;6.158;2023-04-25T04:50:32;4.90;99.90
51500;DHT22;39101;53.478;6.158;2023-04-25T04:53:02;5.10;99.90
51500;DHT22;39101;53.478;6.158;2023-04-25T04:55:27;5.20;99.90
51500;DHT22;39101;53.478;6.158;2023-04-25T04:57:53;5.00;99.90
51500;DHT22;39101;53.478;6.158;2023-04-25T05:00:19;5.30;99.90
51500;DHT22;39101;53.478;6.158;2023-04-25T05:02:46;5.20;99.90
51500;DHT22;39101;53.478;6.158;2023-04-25T05:05:11;5.30;99.90
51500;DHT22;39101;53.478;6.158;2023-04-25T05:07:37;5.20;99.90
51500;DHT22;39101;53.478;6.158;2023-04-25T05:10:03;5.20;99.90
51500;DHT22;39101;53.478;6.158;2023-04-25T05:12:29;5.20;99.90
51500;DHT22;39101;53.478;6.158;2023-04-25T05:14:55;5.30;99.90
51500;DHT22;39101;53.478;6.158;2023-04-25T05:17:21;5.70;99.90
51500;DHT22;39101;53.478;6.158;2023-04-25T05:19:47;5.30;99.90
51500;DHT22;39101;53.478;6.158;2023-04-25T05:22:12;5.30;99.90
51500;DHT22;39101;53.478;6.158;2023-04-25T05:24:38;5.30;99.90
51500;DHT22;39101;53.478;6.158;2023-04-25T05:27:04;5.40;99.90
51500;DHT22;39101;53.478;6.158;2023-04-25T05:29:31;5.30;99.90
51500;DHT22;39101;53.478;6.158;2023-04-25T05:31:56;5.40;99.90
51500;DHT22;39101;53.478;6.158;2023-04-25T05:34:22;5.40;99.90
51500;DHT22;39101;53.478;6.158;2023-04-25T05:36:47;5.50;99.90
51500;DHT22;39101;53.478;6.158;2023-04-25T05:39:15;5.70;99.90
51500;DHT22;39101;53.478;6.158;2023-04-25T05:41:42;5.90;99.90
51500;DHT22;39101;53.478;6.158;2023-04-25T05:44:08;6.10;99.90
51500;DHT22;39101;53.478;6.158;2023-04-25T05:46:34;6.20;99.90
51500;DHT22;39101;53.478;6.158;2023-04-25T05:48:59;6.40;99.90
51500;DHT22;39101;53.478;6.158;2023-04-25T05:51:25;6.50;99.90
51500;DHT22;39101;53.478;6.158;2023-04-25T05:53:51;6.50;99.90
51500;DHT22;39101;53.478;6.158;2023-04-25T05:56:17;6.60;99.90
51500;DHT22;39101;53.478;6.158;2023-04-25T05:58:42;6.70;99.90
51500;DHT22;39101;53.478;6.158;2023-04-25T06:01:08;6.60;99.90
51500;DHT22;39101;53.478;6.158;2023-04-25T06:03:34;6.40;99.90
51500;DHT22;39101;53.478;6.158;2023-04-25T06:06:00;6.20;99.90
51500;DHT22;39101;53.478;6.158;2023-04-25T06:08:26;6.20;99.90
51500;DHT22;39101;53.478;6.158;2023-04-25T06:10:51;6.10;99.90
51500;DHT22;39101;53.478;6.158;2023-04-25T06:13:17;6.10;99.90
51500;DHT22;39101;53.478;6.158;2023-04-25T06:15:43;6.00;99.90
51500;DHT22;39101;53.478;6.158;2023-04-25T06:18:08;5.90;99.90
51500;DHT22;39101;53.478;6.158;2023-04-25T06:20:34;6.00;99.90
51500;DHT22;39101;53.478;6.158;2023-04-25T06:23:00;6.40;99.90
51500;DHT22;39101;53.478;6.158;2023-04-25T06:25:25;5.90;99.90
51500;DHT22;39101;53.478;6.158;2023-04-25T06:27:51;6.00;99.90
51500;DHT22;39101;53.478;6.158;2023-04-25T06:30:17;6.10;99.90
51500;DHT22;39101;53.478;6.158;2023-04-25T06:32:56;6.10;99.90
51500;DHT22;39101;53.478;6.158;2023-04-25T06:35:22;6.20;99.90
51500;DHT22;39101;53.478;6.158;2023-04-25T06:37:48;6.40;99.90
51500;DHT22;39101;53.478;6.158;2023-04-25T06:40:13;6.50;99.90
51500;DHT22;39101;53.478;6.158;2023-04-25T06:42:40;6.50;99.90
51500;DHT22;39101;53.478;6.158;2023-04-25T06:45:06;6.60;99.90
51500;DHT22;39101;53.478;6.158;2023-04-25T06:47:32;6.60;99.90
51500;DHT22;39101;53.478;6.158;2023-04-25T06:49:57;6.60;99.90
51500;DHT22;39101;53.478;6.158;2023-04-25T06:52:23;6.50;99.90
51500;DHT22;39101;53.478;6.158;2023-04-25T06:54:48;6.80;99.90
51500;DHT22;39101;53.478;6.158;2023-04-25T06:57:14;6.40;99.90
51500;DHT22;39101;53.478;6.158;2023-04-25T06:59:40;6.30;99.90
51500;DHT22;39101;53.478;6.158;2023-04-25T07:02:06;6.20;99.90
51500;DHT22;39101;53.478;6.158;2023-04-25T07:04:31;6.40;99.90
51500;DHT22;39101;53.478;6.158;2023-04-25T07:06:57;6.20;99.90
51500;DHT22;39101;53.478;6.158;2023-04-25T07:09:23;6.30;99.90
51500;DHT22;39101;53.478;6.158;2023-04-25T07:11:48;6.40;99.90
51500;DHT22;39101;53.478;6.158;2023-04-25T07:14:14;6.60;99.90
51500;DHT22;39101;53.478;6.158;2023-04-25T07:16:40;7.00;99.90
51500;DHT22;39101;53.478;6.158;2023-04-25T07:19:06;7.20;99.90
51500;DHT22;39101;53.478;6.158;2023-04-25T07:21:32;7.10;99.90
51500;DHT22;39101;53.478;6.158;2023-04-25T07:23:58;7.00;99.90
51500;DHT22;39101;53.478;6.158;2023-04-25T07:26:23;6.60;99.90
51500;DHT22;39101;53.478;6.158;2023-04-25T07:28:50;6.30;99.90
51500;DHT22;39101;53.478;6.158;2023-04-25T07:31:19;5.80;99.90
51500;DHT22;39101;53.478;6.158;2023-04-25T07:33:45;5.50;99.90
51500;DHT22;39101;53.478;6.158;2023-04-25T07:36:11;5.20;99.90
51500;DHT22;39101;53.478;6.158;2023-04-25T07:38:38;5.00;99.90
51500;DHT22;39101;53.478;6.158;2023-04-25T07:41:04;4.90;99.90
51500;DHT22;39101;53.478;6.158;2023-04-25T07:43:29;5.00;99.90
51500;DHT22;39101;53.478;6.158;2023-04-25T07:45:56;5.00;99.90
51500;DHT22;39101;53.478;6.158;2023-04-25T07:48:22;5.20;99.90
51500;DHT22;39101;53.478;6.158;2023-04-25T07:50:48;5.40;99.90
51500;DHT22;39101;53.478;6.158;2023-04-25T07:53:13;5.40;99.90
51500;DHT22;39101;53.478;6.158;2023-04-25T07:55:39;5.60;99.90
51500;DHT22;39101;53.478;6.158;2023-04-25T07:58:10;5.80;99.90
51500;DHT22;39101;53.478;6.158;2023-04-25T08:00:36;6.10;99.90
51500;DHT22;39101;53.478;6.158;2023-04-25T08:03:02;6.30;99.90
51500;DHT22;39101;53.478;6.158;2023-04-25T08:05:28;6.60;99.90
51500;DHT22;39101;53.478;6.158;2023-04-25T08:07:54;6.80;99.90
51500;DHT22;39101;53.478;6.158;2023-04-25T08:10:19;7.00;99.90
51500;DHT22;39101;53.478;6.158;2023-04-25T08:12:46;7.10;99.90
51500;DHT22;39101;53.478;6.158;2023-04-25T08:15:11;7.40;99.90
51500;DHT22;39101;53.478;6.158;2023-04-25T08:17:39;7.50;99.90
51500;DHT22;39101;53.478;6.158;2023-04-25T08:20:05;7.50;99.90
51500;DHT22;39101;53.478;6.158;2023-04-25T08:22:31;7.70;99.90
51500;DHT22;39101;53.478;6.158;2023-04-25T08:24:57;7.80;99.90
51500;DHT22;39101;53.478;6.158;2023-04-25T08:27:23;7.90;99.90
51500;DHT22;39101;53.478;6.158;2023-04-25T08:29:49;8.00;99.90
51500;DHT22;39101;53.478;6.158;2023-04-25T08:32:16;8.20;99.90
51500;DHT22;39101;53.478;6.158;2023-04-25T08:34:41;8.30;99.90
51500;DHT22;39101;53.478;6.158;2023-04-25T08:37:09;8.20;99.90
51500;DHT22;39101;53.478;6.158;2023-04-25T08:39:36;8.10;99.90
51500;DHT22;39101;53.478;6.158;2023-04-25T08:42:05;8.00;99.90
51500;DHT22;39101;53.478;6.158;2023-04-25T08:44:34;7.90;99.90
51500;DHT22;39101;53.478;6.158;2023-04-25T08:47:03;7.80;99.90
51500;DHT22;39101;53.478;6.158;2023-04-25T08:49:31;7.50;99.90
51500;DHT22;39101;53.478;6.158;2023-04-25T08:52:00;7.40;99.90
51500;DHT22;39101;53.478;6.158;2023-04-25T08:54:27;7.40;99.90
51500;DHT22;39101;53.478;6.158;2023-04-25T08:56:54;7.60;99.90
51500;DHT22;39101;53.478;6.158;2023-04-25T08:59:23;7.90;99.90
51500;DHT22;39101;53.478;6.158;2023-04-25T09:01:51;8.10;99.90
51500;DHT22;39101;53.478;6.158;2023-04-25T09:04:18;8.10;99.90
51500;DHT22;39101;53.478;6.158;2023-04-25T09:06:46;8.10;99.90
51500;DHT22;39101;53.478;6.158;2023-04-25T09:09:11;8.20;99.90
51500;DHT22;39101;53.478;6.158;2023-04-25T09:11:37;8.30;99.90
51500;DHT22;39101;53.478;6.158;2023-04-25T09:19:48;8.70;99.90
51500;DHT22;39101;53.478;6.158;2023-04-25T09:22:17;8.40;99.90
51500;DHT22;39101;53.478;6.158;2023-04-25T09:24:46;8.40;99.90
51500;DHT22;39101;53.478;6.158;2023-04-25T09:27:18;8.30;99.90
51500;DHT22;39101;53.478;6.158;2023-04-25T09:29:44;8.10;99.90
51500;DHT22;39101;53.478;6.158;2023-04-25T09:32:24;8.00;99.90
51500;DHT22;39101;53.478;6.158;2023-04-25T09:34:57;7.90;99.90
51500;DHT22;39101;53.478;6.158;2023-04-25T09:37:27;8.20;99.90
51500;DHT22;39101;53.478;6.158;2023-04-25T09:39:57;8.50;99.90
51500;DHT22;39101;53.478;6.158;2023-04-25T09:42:30;8.50;99.90
51500;DHT22;39101;53.478;6.158;2023-04-25T09:44:58;8.60;99.90
51500;DHT22;39101;53.478;6.158;2023-04-25T09:47:26;8.80;99.90
51500;DHT22;39101;53.478;6.158;2023-04-25T09:49:54;9.10;99.90
51500;DHT22;39101;53.478;6.158;2023-04-25T09:52:24;8.90;99.90
51500;DHT22;39101;53.478;6.158;2023-04-25T09:54:51;8.70;99.90
51500;DHT22;39101;53.478;6.158;2023-04-25T09:57:23;8.30;99.90
51500;DHT22;39101;53.478;6.158;2023-04-25T09:59:51;8.20;99.90
51500;DHT22;39101;53.478;6.158;2023-04-25T10:02:19;8.10;99.90
51500;DHT22;39101;53.478;6.158;2023-04-25T10:04:48;7.90;99.90
51500;DHT22;39101;53.478;6.158;2023-04-25T10:07:16;8.00;99.90
51500;DHT22;39101;53.478;6.158;2023-04-25T10:09:44;8.10;99.90
51500;DHT22;39101;53.478;6.158;2023-04-25T10:12:12;8.30;99.90
51500;DHT22;39101;53.478;6.158;2023-04-25T10:14:38;8.20;99.90
51500;DHT22;39101;53.478;6.158;2023-04-25T10:17:05;8.20;99.90
51500;DHT22;39101;53.478;6.158;2023-04-25T10:19:32;8.00;99.90
51500;DHT22;39101;53.478;6.158;2023-04-25T10:25:07;8.10;99.90
51500;DHT22;39101;53.478;6.158;2023-04-25T10:27:34;8.20;99.90
51500;DHT22;39101;53.478;6.158;2023-04-25T10:30:13;8.40;99.90
51500;DHT22;39101;53.478;6.158;2023-04-25T10:32:42;8.40;99.90
51500;DHT22;39101;53.478;6.158;2023-04-25T10:35:15;8.30;99.90
51500;DHT22;39101;53.478;6.158;2023-04-25T10:38:09;8.40;99.90
51500;DHT22;39101;53.478;6.158;2023-04-25T10:40:35;8.60;99.90
51500;DHT22;39101;53.478;6.158;2023-04-25T10:46:02;8.80;99.90
51500;DHT22;39101;53.478;6.158;2023-04-25T10:48:31;8.90;99.90
51500;DHT22;39101;53.478;6.158;2023-04-25T10:53:46;8.50;99.90
51500;DHT22;39101;53.478;6.158;2023-04-25T10:56:17;8.60;99.90
51500;DHT22;39101;53.478;6.158;2023-04-25T10:58:44;8.50;99.90
51500;DHT22;39101;53.478;6.158;2023-04-25T11:01:12;8.70;99.90
51500;DHT22;39101;53.478;6.158;2023-04-25T11:03:41;8.70;99.90
51500;DHT22;39101;53.478;6.158;2023-04-25T11:06:18;8.90;99.90
51500;DHT22;39101;53.478;6.158;2023-04-25T11:08:50;9.00;99.90
51500;DHT22;39101;53.478;6.158;2023-04-25T11:11:19;9.20;99.90
51500;DHT22;39101;53.478;6.158;2023-04-25T11:13:48;9.30;99.90
51500;DHT22;39101;53.478;6.158;2023-04-25T11:16:15;9.40;99.90
51500;DHT22;39101;53.478;6.158;2023-04-25T11:18:44;9.70;99.90
51500;DHT22;39101;53.478;6.158;2023-04-25T11:21:10;9.60;99.90
51500;DHT22;39101;53.478;6.158;2023-04-25T11:23:36;9.70;99.90
51500;DHT22;39101;53.478;6.158;2023-04-25T11:26:03;9.70;99.90
51500;DHT22;39101;53.478;6.158;2023-04-25T11:28:29;9.70;99.90
51500;DHT22;39101;53.478;6.158;2023-04-25T11:30:56;9.80;99.90
51500;DHT22;39101;53.478;6.158;2023-04-25T11:33:25;9.80;99.90
51500;DHT22;39101;53.478;6.158;2023-04-25T11:35:55;9.90;99.90
51500;DHT22;39101;53.478;6.158;2023-04-25T11:38:24;9.60;99.90
51500;DHT22;39101;53.478;6.158;2023-04-25T11:40:52;9.40;99.90
51500;DHT22;39101;53.478;6.158;2023-04-25T11:43:21;9.40;99.90
51500;DHT22;39101;53.478;6.158;2023-04-25T11:45:51;9.40;99.90
51500;DHT22;39101;53.478;6.158;2023-04-25T11:48:18;9.60;99.90
51500;DHT22;39101;53.478;6.158;2023-04-25T11:50:44;9.70;99.90
51500;DHT22;39101;53.478;6.158;2023-04-25T11:53:10;9.80;99.90
51500;DHT22;39101;53.478;6.158;2023-04-25T11:55:36;9.70;99.90
51500;DHT22;39101;53.478;6.158;2023-04-25T11:58:03;9.70;99.90
51500;DHT22;39101;53.478;6.158;2023-04-25T12:00:30;9.60;99.90
51500;DHT22;39101;53.478;6.158;2023-04-25T12:02:57;9.70;99.90
51500;DHT22;39101;53.478;6.158;2023-04-25T12:05:30;9.80;99.90
51500;DHT22;39101;53.478;6.158;2023-04-25T12:07:56;9.90;99.90
51500;DHT22;39101;53.478;6.158;2023-04-25T12:10:21;10.00;99.90
51500;DHT22;39101;53.478;6.158;2023-04-25T12:12:49;10.20;99.90
51500;DHT22;39101;53.478;6.158;2023-04-25T12:15:17;10.00;99.90
51500;DHT22;39101;53.478;6.158;2023-04-25T12:17:49;9.50;99.90
51500;DHT22;39101;53.478;6.158;2023-04-25T12:20:17;9.00;99.90
51500;DHT22;39101;53.478;6.158;2023-04-25T12:22:47;8.90;99.90
51500;DHT22;39101;53.478;6.158;2023-04-25T12:25:35;8.80;99.90
51500;DHT22;39101;53.478;6.158;2023-04-25T12:28:23;8.70;99.90
51500;DHT22;39101;53.478;6.158;2023-04-25T12:33:22;8.50;99.90
51500;DHT22;39101;53.478;6.158;2023-04-25T12:35:48;8.50;99.90
51500;DHT22;39101;53.478;6.158;2023-04-25T12:38:36;8.60;99.90
51500;DHT22;39101;53.478;6.158;2023-04-25T12:41:02;8.50;99.90
51500;DHT22;39101;53.478;6.158;2023-04-25T12:43:27;8.50;99.90
51500;DHT22;39101;53.478;6.158;2023-04-25T12:45:54;8.70;99.90
51500;DHT22;39101;53.478;6.158;2023-04-25T12:48:21;8.90;99.90
51500;DHT22;39101;53.478;6.158;2023-04-25T12:50:47;9.00;99.90
51500;DHT22;39101;53.478;6.158;2023-04-25T12:53:15;9.10;99.90
51500;DHT22;39101;53.478;6.158;2023-04-25T12:55:41;9.40;99.90
51500;DHT22;39101;53.478;6.158;2023-04-25T12:58:06;9.60;99.90
51500;DHT22;39101;53.478;6.158;2023-04-25T13:00:33;9.70;99.90
51500;DHT22;39101;53.478;6.158;2023-04-25T13:02:59;9.80;99.90
51500;DHT22;39101;53.478;6.158;2023-04-25T13:05:25;9.60;99.90
51500;DHT22;39101;53.478;6.158;2023-04-25T13:07:50;9.30;99.90
51500;DHT22;39101;53.478;6.158;2023-04-25T13:10:17;9.20;99.90
51500;DHT22;39101;53.478;6.158;2023-04-25T13:12:43;9.30;99.90
51500;DHT22;39101;53.478;6.158;2023-04-25T13:15:10;9.30;99.90
51500;DHT22;39101;53.478;6.158;2023-04-25T13:17:37;9.30;99.90
51500;DHT22;39101;53.478;6.158;2023-04-25T13:20:05;9.50;99.90
51500;DHT22;39101;53.478;6.158;2023-04-25T13:22:34;9.60;99.90
51500;DHT22;39101;53.478;6.158;2023-04-25T13:25:02;9.80;99.90
51500;DHT22;39101;53.478;6.158;2023-04-25T13:27:28;9.70;99.90
51500;DHT22;39101;53.478;6.158;2023-04-25T13:29:54;9.50;99.90
51500;DHT22;39101;53.478;6.158;2023-04-25T13:32:20;9.30;99.90
51500;DHT22;39101;53.478;6.158;2023-04-25T13:34:45;9.40;99.90
51500;DHT22;39101;53.478;6.158;2023-04-25T13:37:11;9.50;99.90
51500;DHT22;39101;53.478;6.158;2023-04-25T13:39:37;9.50;99.90
51500;DHT22;39101;53.478;6.158;2023-04-25T13:42:02;9.70;99.90
51500;DHT22;39101;53.478;6.158;2023-04-25T13:44:28;9.80;99.90
51500;DHT22;39101;53.478;6.158;2023-04-25T13:46:54;9.80;99.90
51500;DHT22;39101;53.478;6.158;2023-04-25T13:49:20;10.00;99.90
51500;DHT22;39101;53.478;6.158;2023-04-25T13:51:45;10.10;99.90
51500;DHT22;39101;53.478;6.158;2023-04-25T13:54:11;10.20;99.90
51500;DHT22;39101;53.478;6.158;2023-04-25T13:56:37;10.10;99.90
51500;DHT22;39101;53.478;6.158;2023-04-25T13:59:02;9.80;99.90
51500;DHT22;39101;53.478;6.158;2023-04-25T14:01:28;9.70;99.90
51500;DHT22;39101;53.478;6.158;2023-04-25T14:03:56;9.70;99.90
51500;DHT22;39101;53.478;6.158;2023-04-25T14:06:22;9.70;99.90
51500;DHT22;39101;53.478;6.158;2023-04-25T14:08:50;9.70;99.90
51500;DHT22;39101;53.478;6.158;2023-04-25T14:11:16;9.60;99.90
51500;DHT22;39101;53.478;6.158;2023-04-25T14:13:44;9.30;99.90
51500;DHT22;39101;53.478;6.158;2023-04-25T14:16:10;9.20;99.90
51500;DHT22;39101;53.478;6.158;2023-04-25T14:18:35;9.40;99.90
51500;DHT22;39101;53.478;6.158;2023-04-25T14:21:01;9.40;99.90
51500;DHT22;39101;53.478;6.158;2023-04-25T14:23:27;9.40;99.90
51500;DHT22;39101;53.478;6.158;2023-04-25T14:25:52;9.50;99.90
51500;DHT22;39101;53.478;6.158;2023-04-25T14:28:19;9.50;99.90
51500;DHT22;39101;53.478;6.158;2023-04-25T14:30:45;9.60;99.90
51500;DHT22;39101;53.478;6.158;2023-04-25T14:33:11;9.60;99.90
51500;DHT22;39101;53.478;6.158;2023-04-25T14:35:37;9.60;99.90
51500;DHT22;39101;53.478;6.158;2023-04-25T14:38:02;9.50;99.90
51500;DHT22;39101;53.478;6.158;2023-04-25T14:40:28;9.50;99.90
51500;DHT22;39101;53.478;6.158;2023-04-25T14:42:54;9.70;99.90
51500;DHT22;39101;53.478;6.158;2023-04-25T14:45:20;9.70;99.90
51500;DHT22;39101;53.478;6.158;2023-04-25T14:47:46;9.80;99.90
51500;DHT22;39101;53.478;6.158;2023-04-25T14:50:11;9.70;99.90
51500;DHT22;39101;53.478;6.158;2023-04-25T14:52:37;9.70;99.90
51500;DHT22;39101;53.478;6.158;2023-04-25T14:55:03;9.80;99.90
51500;DHT22;39101;53.478;6.158;2023-04-25T14:57:33;10.10;99.90
51500;DHT22;39101;53.478;6.158;2023-04-25T15:00:00;10.20;99.90
51500;DHT22;39101;53.478;6.158;2023-04-25T15:02:27;10.20;99.90
51500;DHT22;39101;53.478;6.158;2023-04-25T15:04:54;10.10;99.90
51500;DHT22;39101;53.478;6.158;2023-04-25T15:07:21;10.10;99.90
51500;DHT22;39101;53.478;6.158;2023-04-25T15:09:47;10.20;99.90
51500;DHT22;39101;53.478;6.158;2023-04-25T15:12:13;10.30;99.90
51500;DHT22;39101;53.478;6.158;2023-04-25T15:14:39;10.30;99.90
51500;DHT22;39101;53.478;6.158;2023-04-25T15:17:05;10.50;99.90
51500;DHT22;39101;53.478;6.158;2023-04-25T15:19:31;10.40;99.90
51500;DHT22;39101;53.478;6.158;2023-04-25T15:21:57;10.40;99.90
51500;DHT22;39101;53.478;6.158;2023-04-25T15:24:25;10.60;99.90
51500;DHT22;39101;53.478;6.158;2023-04-25T15:26:51;10.90;99.90
51500;DHT22;39101;53.478;6.158;2023-04-25T15:29:17;11.00;99.90
51500;DHT22;39101;53.478;6.158;2023-04-25T15:31:44;11.20;99.90
51500;DHT22;39101;53.478;6.158;2023-04-25T15:34:10;11.40;99.90
51500;DHT22;39101;53.478;6.158;2023-04-25T15:36:36;11.80;99.90
51500;DHT22;39101;53.478;6.158;2023-04-25T15:39:02;12.20;99.90
51500;DHT22;39101;53.478;6.158;2023-04-25T15:41:28;12.30;99.90
51500;DHT22;39101;53.478;6.158;2023-04-25T15:43:54;12.30;99.90
51500;DHT22;39101;53.478;6.158;2023-04-25T15:46:20;12.10;99.90
51500;DHT22;39101;53.478;6.158;2023-04-25T15:48:47;12.20;99.90
51500;DHT22;39101;53.478;6.158;2023-04-25T15:51:13;12.40;99.90
51500;DHT22;39101;53.478;6.158;2023-04-25T15:53:39;12.50;99.90
51500;DHT22;39101;53.478;6.158;2023-04-25T15:56:05;12.50;99.90
51500;DHT22;39101;53.478;6.158;2023-04-25T15:58:31;12.20;99.90